Kezdőlap
METAR-TAF:

METAR-TAF

Repülőterek :

La Veta Pass

La Veta, Colorado, Amerikai Egyesült Államok

földrajzi szélesség: 37-30-04N, földrajzi hosszúság: 105-10-01W, magasság: 3114 m

Jelenlegi meteorológiai megfigyelések

A jelentés 39 perccel ezelõtt készült, 23:54 UTC
Nyugat-délnyugati szél 10 kt széllökések: 17 kt
Hőmérséklet 4°C
Páratartalom 32%
Légköri nyomás 1014 hPa
Látótávolság: 16.1 km
Szórványos felhőzet 7500 lábon

METAR: KVTP 042354Z AUTO 25010G17KT 10SM SCT075 04/M11 A2995 RMK AO2 TSNO

Idő: 18:33 (00:33 UTC)


TAF: hiányzik

Meteorológiai megfigyelések és előrejelzések több, mint 4000 repülőtéren (METAR és TAF jelentéseket).

A térképen piros és sárga pontok jelzik az elérhető meteorológiai állomásokat.

Mozgassa az egeret a pont fölött, hogy megjelenjen az állomás neve.

Azután kattintson az időjárási megfigyelések és előrejelzések megtekintéséhez.

A térkép megváltoztatása: kattintson a fekete keresztel jelölt zöld gombra ráközelítéshez, a vonallal jelölt zöld gombra távolításhoz, vagy a zöld nyilakra a szomszédos térképek eléréséhez.


METAR-TAF: